Aérodrome :
LOGIN :

S'inscrire | Disclaimer

   EN    FR    IT 

 










Légende :    VFR   VFR Marginal   IFR   IFR Intensif   IFR Très Intensif
Visi : 
Plafond : 
>= 8 km
>= 3000ft
5 à 8 km
1000 à 3000 ft
1500m à 5 km
500 à 1000 ft
800 à 1500m
200 à 500 ft
< 800m
< 200 ft
Symboles :   Orages  Brouillard  Fortes neiges  Fortes précipitations  Vent > 20 kt
SIGMETs :   Divers  Orages  Givrage  Turbulence  Onde Orograph.  Cendres Volcan.






- Altitude de l'aérodrome : 1036 ft
- Code IATA : ERF


EDDE - Erfurt

DERNIER METAR :
  • 150720Z 20015KT 9999 FEW020 BKN043 07/05 Q0997 TEMPO 20015G25KT

METARs EXPIRÉS :
  • 150650Z 19016KT 9999 -RA FEW020 BKN046 07/05 Q0996 TEMPO 20015G25KT
  • 150620Z 19018KT 9999 -RA FEW018 BKN046 06/04 Q0996 TEMPO 20015G25KT
  • 150550Z 19017KT 9999 -RA FEW020 BKN046 06/04 Q0997 TEMPO 20015G25KT
  • 150520Z 19015KT 9999 -RA SCT020 BKN043 06/04 Q0997 TEMPO 20015G25KT
  • 150450Z 19016KT 9999 -RA SCT018 BKN040 06/03 Q0997 TEMPO 20015G25KT

TAF TAF EDDE
Valide du 15 à 06h jusqu'au 16 à 06h UTC


150500Z 1506/1606 19015KT 9999 SCT040
BECMG 1506/1508 22015G30KT
TEMPO 1508/1513 23020G35KT
BECMG 1514/1516 22010KT



MET'MAP, la Météo Aéronautique d'un coup d'oeil ! - Copyright ORBIFLY Décembre 2007 - Disclaimer

ORBIFLY MET'MAP TEAM :

Programmation & Développement : Alexandra Zaïnal
Sur une idée originale de : Baudouin d'Aumeries
Assistance à la programmation : Marc-Olivier Méhu
Soutien technique & logistique : Manuel Goepfert

Contact : metmap@orbifly.com




SOURCES & CREDITS :

   NOAA